Terminal Aerodrome Forecast
Issued by NWS

Home | Current Version | Previous Version | Graphics & Text | Print | Product List | Glossary On
Versions: 1 2 3 4 5 6 7 8 9 10 11 12
654
FTUS43 KBIS 151736
TAFDIK
TAF
KDIK 151736Z 1518/1618 24015KT P6SM SKC
     FM160200 24010KT P6SM FEW250
     FM161200 28010KT P6SM SCT100 SCT250
     FM161600 29011KT P6SM BKN040=

USA.gov is the U.S. government's official web portal to all federal, state and local government web resources and services.